sensor_id;sensor_type;location;lat;lon;timestamp;temperature;humidity
32147;DHT22;32190;49.112;8.598;2023-08-01T00:03:32;23.90;57.20
32147;DHT22;32190;49.112;8.598;2023-08-01T00:09:23;23.80;57.40
32147;DHT22;32190;49.112;8.598;2023-08-01T00:15:14;23.80;57.50
32147;DHT22;32190;49.112;8.598;2023-08-01T00:21:04;23.70;57.60
32147;DHT22;32190;49.112;8.598;2023-08-01T00:26:55;23.60;57.60
32147;DHT22;32190;49.112;8.598;2023-08-01T00:32:47;23.60;58.50
32147;DHT22;32190;49.112;8.598;2023-08-01T00:38:37;23.50;58.00
32147;DHT22;32190;49.112;8.598;2023-08-01T00:44:28;23.50;58.00
32147;DHT22;32190;49.112;8.598;2023-08-01T00:50:18;23.50;58.00
32147;DHT22;32190;49.112;8.598;2023-08-01T00:56:12;23.50;58.10
32147;DHT22;32190;49.112;8.598;2023-08-01T01:02:03;23.50;58.00
32147;DHT22;32190;49.112;8.598;2023-08-01T01:07:55;23.50;58.00
32147;DHT22;32190;49.112;8.598;2023-08-01T01:13:46;23.50;58.00
32147;DHT22;32190;49.112;8.598;2023-08-01T01:19:36;23.50;57.80
32147;DHT22;32190;49.112;8.598;2023-08-01T01:25:27;23.50;58.00
32147;DHT22;32190;49.112;8.598;2023-08-01T01:31:19;23.50;58.00
32147;DHT22;32190;49.112;8.598;2023-08-01T01:37:10;23.40;58.20
32147;DHT22;32190;49.112;8.598;2023-08-01T01:43:01;23.40;58.20
32147;DHT22;32190;49.112;8.598;2023-08-01T01:48:51;23.30;58.40
32147;DHT22;32190;49.112;8.598;2023-08-01T01:54:42;23.30;58.40
32147;DHT22;32190;49.112;8.598;2023-08-01T02:00:32;23.30;58.50
32147;DHT22;32190;49.112;8.598;2023-08-01T02:06:23;23.30;58.70
32147;DHT22;32190;49.112;8.598;2023-08-01T02:12:13;23.30;58.70
32147;DHT22;32190;49.112;8.598;2023-08-01T02:18:04;23.20;58.90
32147;DHT22;32190;49.112;8.598;2023-08-01T02:23:55;23.20;59.10
32147;DHT22;32190;49.112;8.598;2023-08-01T02:29:46;23.10;59.10
32147;DHT22;32190;49.112;8.598;2023-08-01T02:35:37;23.10;59.20
32147;DHT22;32190;49.112;8.598;2023-08-01T02:41:27;23.10;59.20
32147;DHT22;32190;49.112;8.598;2023-08-01T02:47:18;23.10;59.00
32147;DHT22;32190;49.112;8.598;2023-08-01T02:53:09;23.10;59.10
32147;DHT22;32190;49.112;8.598;2023-08-01T02:58:59;23.10;59.10
32147;DHT22;32190;49.112;8.598;2023-08-01T03:04:50;23.10;59.00
32147;DHT22;32190;49.112;8.598;2023-08-01T03:10:40;23.10;59.10
32147;DHT22;32190;49.112;8.598;2023-08-01T03:16:31;23.10;59.00
32147;DHT22;32190;49.112;8.598;2023-08-01T03:22:22;23.10;59.30
32147;DHT22;32190;49.112;8.598;2023-08-01T03:28:12;23.10;59.20
32147;DHT22;32190;49.112;8.598;2023-08-01T03:34:04;23.00;59.40
32147;DHT22;32190;49.112;8.598;2023-08-01T03:39:55;23.00;59.50
32147;DHT22;32190;49.112;8.598;2023-08-01T03:45:45;22.90;59.60
32147;DHT22;32190;49.112;8.598;2023-08-01T03:51:36;23.00;59.80
32147;DHT22;32190;49.112;8.598;2023-08-01T03:57:26;23.00;59.90
32147;DHT22;32190;49.112;8.598;2023-08-01T04:03:17;22.90;60.10
32147;DHT22;32190;49.112;8.598;2023-08-01T04:09:07;22.80;60.20
32147;DHT22;32190;49.112;8.598;2023-08-01T04:14:58;22.80;60.40
32147;DHT22;32190;49.112;8.598;2023-08-01T04:20:49;22.80;60.20
32147;DHT22;32190;49.112;8.598;2023-08-01T04:26:40;22.80;60.50
32147;DHT22;32190;49.112;8.598;2023-08-01T04:32:31;22.80;60.40
32147;DHT22;32190;49.112;8.598;2023-08-01T04:38:22;22.70;60.40
32147;DHT22;32190;49.112;8.598;2023-08-01T04:44:12;22.70;60.60
32147;DHT22;32190;49.112;8.598;2023-08-01T04:50:03;22.70;60.50
32147;DHT22;32190;49.112;8.598;2023-08-01T04:55:54;22.70;60.50
32147;DHT22;32190;49.112;8.598;2023-08-01T05:01:45;22.70;60.70
32147;DHT22;32190;49.112;8.598;2023-08-01T05:07:35;22.70;60.80
32147;DHT22;32190;49.112;8.598;2023-08-01T05:13:26;22.70;60.80
32147;DHT22;32190;49.112;8.598;2023-08-01T05:19:16;22.70;60.80
32147;DHT22;32190;49.112;8.598;2023-08-01T05:25:07;22.80;60.90
32147;DHT22;32190;49.112;8.598;2023-08-01T05:30:58;22.80;60.90
32147;DHT22;32190;49.112;8.598;2023-08-01T05:36:48;22.70;60.90
32147;DHT22;32190;49.112;8.598;2023-08-01T05:42:40;22.80;61.10
32147;DHT22;32190;49.112;8.598;2023-08-01T05:48:31;22.80;60.80
32147;DHT22;32190;49.112;8.598;2023-08-01T05:54:21;22.80;60.90
32147;DHT22;32190;49.112;8.598;2023-08-01T06:00:12;22.80;61.10
32147;DHT22;32190;49.112;8.598;2023-08-01T06:06:03;22.80;61.20
32147;DHT22;32190;49.112;8.598;2023-08-01T06:11:54;22.70;61.10
32147;DHT22;32190;49.112;8.598;2023-08-01T06:17:45;22.70;61.10
32147;DHT22;32190;49.112;8.598;2023-08-01T06:23:35;22.60;61.10
32147;DHT22;32190;49.112;8.598;2023-08-01T06:29:26;22.60;61.10
32147;DHT22;32190;49.112;8.598;2023-08-01T06:35:17;22.60;61.30
32147;DHT22;32190;49.112;8.598;2023-08-01T06:41:07;22.50;61.30
32147;DHT22;32190;49.112;8.598;2023-08-01T06:46:58;22.40;61.30
32147;DHT22;32190;49.112;8.598;2023-08-01T06:52:48;22.40;61.30
32147;DHT22;32190;49.112;8.598;2023-08-01T06:58:39;22.40;61.40
32147;DHT22;32190;49.112;8.598;2023-08-01T07:04:30;22.30;61.60
32147;DHT22;32190;49.112;8.598;2023-08-01T07:10:20;22.30;61.70
32147;DHT22;32190;49.112;8.598;2023-08-01T07:16:11;22.30;61.90
32147;DHT22;32190;49.112;8.598;2023-08-01T07:22:02;22.30;61.80
32147;DHT22;32190;49.112;8.598;2023-08-01T07:27:52;22.30;61.70
32147;DHT22;32190;49.112;8.598;2023-08-01T07:33:43;22.40;62.00
32147;DHT22;32190;49.112;8.598;2023-08-01T07:39:33;22.40;61.80
32147;DHT22;32190;49.112;8.598;2023-08-01T07:45:25;22.40;61.60
32147;DHT22;32190;49.112;8.598;2023-08-01T07:51:15;22.40;61.70
32147;DHT22;32190;49.112;8.598;2023-08-01T07:57:06;22.40;62.00
32147;DHT22;32190;49.112;8.598;2023-08-01T08:02:57;22.40;62.20
32147;DHT22;32190;49.112;8.598;2023-08-01T08:08:47;22.40;62.50
32147;DHT22;32190;49.112;8.598;2023-08-01T08:14:38;22.40;62.60
32147;DHT22;32190;49.112;8.598;2023-08-01T08:20:28;22.40;62.30
32147;DHT22;32190;49.112;8.598;2023-08-01T08:26:19;22.40;62.60
32147;DHT22;32190;49.112;8.598;2023-08-01T08:32:10;22.50;62.80
32147;DHT22;32190;49.112;8.598;2023-08-01T08:38:02;22.60;62.90
32147;DHT22;32190;49.112;8.598;2023-08-01T08:43:57;22.60;62.80
32147;DHT22;32190;49.112;8.598;2023-08-01T08:49:49;22.70;62.70
32147;DHT22;32190;49.112;8.598;2023-08-01T08:55:40;22.70;62.70
32147;DHT22;32190;49.112;8.598;2023-08-01T09:01:32;22.70;62.70
32147;DHT22;32190;49.112;8.598;2023-08-01T09:07:24;22.70;63.20
32147;DHT22;32190;49.112;8.598;2023-08-01T09:13:18;22.70;63.40
32147;DHT22;32190;49.112;8.598;2023-08-01T09:19:09;22.80;63.00
32147;DHT22;32190;49.112;8.598;2023-08-01T09:24:59;22.90;62.90
32147;DHT22;32190;49.112;8.598;2023-08-01T09:30:52;23.10;63.60
32147;DHT22;32190;49.112;8.598;2023-08-01T09:36:44;23.20;64.20
32147;DHT22;32190;49.112;8.598;2023-08-01T09:42:40;23.30;64.00
32147;DHT22;32190;49.112;8.598;2023-08-01T09:48:30;23.50;64.20
32147;DHT22;32190;49.112;8.598;2023-08-01T09:54:21;23.50;64.00
32147;DHT22;32190;49.112;8.598;2023-08-01T10:00:12;23.70;63.80
32147;DHT22;32190;49.112;8.598;2023-08-01T10:06:03;23.80;63.50
32147;DHT22;32190;49.112;8.598;2023-08-01T10:11:57;23.90;62.90
32147;DHT22;32190;49.112;8.598;2023-08-01T10:17:48;23.90;63.20
32147;DHT22;32190;49.112;8.598;2023-08-01T10:23:38;24.00;62.40
32147;DHT22;32190;49.112;8.598;2023-08-01T10:29:36;24.00;62.50
32147;DHT22;32190;49.112;8.598;2023-08-01T10:35:36;24.00;61.90
32147;DHT22;32190;49.112;8.598;2023-08-01T10:41:29;24.20;61.90
32147;DHT22;32190;49.112;8.598;2023-08-01T10:47:26;24.30;61.40
32147;DHT22;32190;49.112;8.598;2023-08-01T10:53:18;24.30;60.30
32147;DHT22;32190;49.112;8.598;2023-08-01T10:59:09;24.30;60.30
32147;DHT22;32190;49.112;8.598;2023-08-01T11:05:04;24.40;59.70
32147;DHT22;32190;49.112;8.598;2023-08-01T11:10:55;24.40;59.40
32147;DHT22;32190;49.112;8.598;2023-08-01T11:16:46;24.50;59.10
32147;DHT22;32190;49.112;8.598;2023-08-01T11:22:38;24.60;58.80
32147;DHT22;32190;49.112;8.598;2023-08-01T11:28:38;24.70;57.50
32147;DHT22;32190;49.112;8.598;2023-08-01T11:34:39;24.70;57.10
32147;DHT22;32190;49.112;8.598;2023-08-01T11:40:31;24.80;56.40
32147;DHT22;32190;49.112;8.598;2023-08-01T11:46:29;24.80;56.30
32147;DHT22;32190;49.112;8.598;2023-08-01T11:52:27;24.80;55.70
32147;DHT22;32190;49.112;8.598;2023-08-01T11:58:35;24.80;54.60
32147;DHT22;32190;49.112;8.598;2023-08-01T12:04:29;24.90;55.20
32147;DHT22;32190;49.112;8.598;2023-08-01T12:10:20;25.00;54.80
32147;DHT22;32190;49.112;8.598;2023-08-01T12:16:10;25.10;55.00
32147;DHT22;32190;49.112;8.598;2023-08-01T12:22:01;25.20;54.00
32147;DHT22;32190;49.112;8.598;2023-08-01T12:27:52;25.30;53.60
32147;DHT22;32190;49.112;8.598;2023-08-01T12:33:42;25.40;52.70
32147;DHT22;32190;49.112;8.598;2023-08-01T12:39:33;25.50;51.80
32147;DHT22;32190;49.112;8.598;2023-08-01T12:45:23;25.50;51.70
32147;DHT22;32190;49.112;8.598;2023-08-01T12:51:14;25.70;51.80
32147;DHT22;32190;49.112;8.598;2023-08-01T12:57:05;25.80;50.80
32147;DHT22;32190;49.112;8.598;2023-08-01T13:02:56;25.80;50.70
32147;DHT22;32190;49.112;8.598;2023-08-01T13:08:46;25.90;49.60
32147;DHT22;32190;49.112;8.598;2023-08-01T13:14:37;26.00;49.20
32147;DHT22;32190;49.112;8.598;2023-08-01T13:20:28;26.10;48.90
32147;DHT22;32190;49.112;8.598;2023-08-01T13:26:18;26.30;48.20
32147;DHT22;32190;49.112;8.598;2023-08-01T13:32:09;26.40;47.80
32147;DHT22;32190;49.112;8.598;2023-08-01T13:37:59;26.50;47.50
32147;DHT22;32190;49.112;8.598;2023-08-01T13:43:50;26.60;47.60
32147;DHT22;32190;49.112;8.598;2023-08-01T13:49:41;26.60;47.90
32147;DHT22;32190;49.112;8.598;2023-08-01T13:55:32;26.70;48.50
32147;DHT22;32190;49.112;8.598;2023-08-01T14:01:22;26.90;47.90
32147;DHT22;32190;49.112;8.598;2023-08-01T14:07:15;27.00;47.30
32147;DHT22;32190;49.112;8.598;2023-08-01T14:13:06;27.10;45.90
32147;DHT22;32190;49.112;8.598;2023-08-01T14:18:57;27.10;46.30
32147;DHT22;32190;49.112;8.598;2023-08-01T14:24:47;27.10;46.00
32147;DHT22;32190;49.112;8.598;2023-08-01T14:30:39;27.00;46.20
32147;DHT22;32190;49.112;8.598;2023-08-01T14:36:29;27.10;46.40
32147;DHT22;32190;49.112;8.598;2023-08-01T14:42:20;27.20;45.50
32147;DHT22;32190;49.112;8.598;2023-08-01T14:48:11;27.30;45.40
32147;DHT22;32190;49.112;8.598;2023-08-01T14:54:01;27.30;44.80
32147;DHT22;32190;49.112;8.598;2023-08-01T14:59:52;27.20;44.40
32147;DHT22;32190;49.112;8.598;2023-08-01T15:05:43;27.10;44.70
32147;DHT22;32190;49.112;8.598;2023-08-01T15:11:35;27.10;45.40
32147;DHT22;32190;49.112;8.598;2023-08-01T15:17:25;27.30;44.90
32147;DHT22;32190;49.112;8.598;2023-08-01T15:23:16;27.40;44.40
32147;DHT22;32190;49.112;8.598;2023-08-01T15:29:06;27.50;44.20
32147;DHT22;32190;49.112;8.598;2023-08-01T15:34:57;27.50;44.20
32147;DHT22;32190;49.112;8.598;2023-08-01T15:40:47;27.60;44.50
32147;DHT22;32190;49.112;8.598;2023-08-01T15:46:39;27.60;44.50
32147;DHT22;32190;49.112;8.598;2023-08-01T15:52:30;27.70;44.80
32147;DHT22;32190;49.112;8.598;2023-08-01T15:58:20;27.70;44.40
32147;DHT22;32190;49.112;8.598;2023-08-01T16:04:11;27.70;44.60
32147;DHT22;32190;49.112;8.598;2023-08-01T16:10:03;27.70;43.90
32147;DHT22;32190;49.112;8.598;2023-08-01T16:15:54;27.60;43.30
32147;DHT22;32190;49.112;8.598;2023-08-01T16:21:44;27.60;43.20
32147;DHT22;32190;49.112;8.598;2023-08-01T16:27:35;27.60;43.40
32147;DHT22;32190;49.112;8.598;2023-08-01T16:33:26;27.60;43.20
32147;DHT22;32190;49.112;8.598;2023-08-01T16:39:17;27.60;42.80
32147;DHT22;32190;49.112;8.598;2023-08-01T16:45:08;27.70;43.30
32147;DHT22;32190;49.112;8.598;2023-08-01T16:51:00;27.70;43.30
32147;DHT22;32190;49.112;8.598;2023-08-01T16:56:50;27.60;43.70
32147;DHT22;32190;49.112;8.598;2023-08-01T17:02:41;27.70;43.90
32147;DHT22;32190;49.112;8.598;2023-08-01T17:08:32;27.60;44.00
32147;DHT22;32190;49.112;8.598;2023-08-01T17:14:22;27.60;43.70
32147;DHT22;32190;49.112;8.598;2023-08-01T17:20:13;27.60;43.80
32147;DHT22;32190;49.112;8.598;2023-08-01T17:26:04;27.50;43.80
32147;DHT22;32190;49.112;8.598;2023-08-01T17:31:54;27.50;44.00
32147;DHT22;32190;49.112;8.598;2023-08-01T17:37:45;27.40;43.70
32147;DHT22;32190;49.112;8.598;2023-08-01T17:43:36;27.30;43.80
32147;DHT22;32190;49.112;8.598;2023-08-01T17:49:26;27.20;43.30
32147;DHT22;32190;49.112;8.598;2023-08-01T17:55:17;27.20;43.80
32147;DHT22;32190;49.112;8.598;2023-08-01T18:01:09;27.10;43.90
32147;DHT22;32190;49.112;8.598;2023-08-01T18:07:00;27.10;43.80
32147;DHT22;32190;49.112;8.598;2023-08-01T18:12:50;27.00;43.90
32147;DHT22;32190;49.112;8.598;2023-08-01T18:18:41;26.90;44.00
32147;DHT22;32190;49.112;8.598;2023-08-01T18:24:31;26.80;43.80
32147;DHT22;32190;49.112;8.598;2023-08-01T18:30:22;26.70;43.60
32147;DHT22;32190;49.112;8.598;2023-08-01T18:36:18;26.60;43.80
32147;DHT22;32190;49.112;8.598;2023-08-01T18:42:10;26.50;44.20
32147;DHT22;32190;49.112;8.598;2023-08-01T18:48:01;26.50;44.20
32147;DHT22;32190;49.112;8.598;2023-08-01T18:53:51;26.50;44.00
32147;DHT22;32190;49.112;8.598;2023-08-01T18:59:42;26.40;44.00
32147;DHT22;32190;49.112;8.598;2023-08-01T19:05:32;26.40;44.40
32147;DHT22;32190;49.112;8.598;2023-08-01T19:11:23;26.30;44.10
32147;DHT22;32190;49.112;8.598;2023-08-01T19:17:14;26.20;44.20
32147;DHT22;32190;49.112;8.598;2023-08-01T19:23:04;26.10;44.30
32147;DHT22;32190;49.112;8.598;2023-08-01T19:28:55;26.00;44.30
32147;DHT22;32190;49.112;8.598;2023-08-01T19:34:46;26.00;44.60
32147;DHT22;32190;49.112;8.598;2023-08-01T19:40:41;25.90;44.60
32147;DHT22;32190;49.112;8.598;2023-08-01T19:46:32;25.80;44.50
32147;DHT22;32190;49.112;8.598;2023-08-01T19:52:23;25.80;44.90
32147;DHT22;32190;49.112;8.598;2023-08-01T19:58:13;25.70;45.00
32147;DHT22;32190;49.112;8.598;2023-08-01T20:04:04;25.70;45.20
32147;DHT22;32190;49.112;8.598;2023-08-01T20:09:55;25.70;45.30
32147;DHT22;32190;49.112;8.598;2023-08-01T20:15:45;25.60;45.40
32147;DHT22;32190;49.112;8.598;2023-08-01T20:21:36;25.50;45.50
32147;DHT22;32190;49.112;8.598;2023-08-01T20:27:27;25.50;45.70
32147;DHT22;32190;49.112;8.598;2023-08-01T20:33:17;25.40;45.70
32147;DHT22;32190;49.112;8.598;2023-08-01T20:39:08;25.20;45.90
32147;DHT22;32190;49.112;8.598;2023-08-01T20:44:58;25.10;45.90
32147;DHT22;32190;49.112;8.598;2023-08-01T20:50:49;25.00;46.10
32147;DHT22;32190;49.112;8.598;2023-08-01T20:56:39;25.00;46.00
32147;DHT22;32190;49.112;8.598;2023-08-01T21:02:30;24.90;46.20
32147;DHT22;32190;49.112;8.598;2023-08-01T21:08:22;24.90;46.50
32147;DHT22;32190;49.112;8.598;2023-08-01T21:14:12;24.80;46.40
32147;DHT22;32190;49.112;8.598;2023-08-01T21:20:03;24.70;46.40
32147;DHT22;32190;49.112;8.598;2023-08-01T21:25:54;24.70;46.40
32147;DHT22;32190;49.112;8.598;2023-08-01T21:31:45;24.60;46.40
32147;DHT22;32190;49.112;8.598;2023-08-01T21:37:35;24.60;46.60
32147;DHT22;32190;49.112;8.598;2023-08-01T21:43:26;24.50;46.80
32147;DHT22;32190;49.112;8.598;2023-08-01T21:49:16;24.50;46.70
32147;DHT22;32190;49.112;8.598;2023-08-01T21:55:07;24.40;46.70
32147;DHT22;32190;49.112;8.598;2023-08-01T22:00:58;24.40;46.70
32147;DHT22;32190;49.112;8.598;2023-08-01T22:06:48;24.30;46.80
32147;DHT22;32190;49.112;8.598;2023-08-01T22:12:39;24.30;47.00
32147;DHT22;32190;49.112;8.598;2023-08-01T22:18:32;24.20;47.00
32147;DHT22;32190;49.112;8.598;2023-08-01T22:24:23;24.20;47.10
32147;DHT22;32190;49.112;8.598;2023-08-01T22:30:14;24.20;47.20
32147;DHT22;32190;49.112;8.598;2023-08-01T22:36:08;24.10;47.20
32147;DHT22;32190;49.112;8.598;2023-08-01T22:42:00;24.00;47.40
32147;DHT22;32190;49.112;8.598;2023-08-01T22:47:53;24.00;47.50
32147;DHT22;32190;49.112;8.598;2023-08-01T22:53:46;23.90;47.60
32147;DHT22;32190;49.112;8.598;2023-08-01T22:59:37;23.90;47.70
32147;DHT22;32190;49.112;8.598;2023-08-01T23:05:27;23.90;47.70
32147;DHT22;32190;49.112;8.598;2023-08-01T23:11:18;23.90;47.70
32147;DHT22;32190;49.112;8.598;2023-08-01T23:17:09;23.80;47.70
32147;DHT22;32190;49.112;8.598;2023-08-01T23:23:00;23.80;47.70
32147;DHT22;32190;49.112;8.598;2023-08-01T23:28:50;23.70;47.80
32147;DHT22;32190;49.112;8.598;2023-08-01T23:34:41;23.60;47.90
32147;DHT22;32190;49.112;8.598;2023-08-01T23:40:31;23.60;48.00
32147;DHT22;32190;49.112;8.598;2023-08-01T23:46:22;23.50;48.00
32147;DHT22;32190;49.112;8.598;2023-08-01T23:52:13;23.50;48.10
32147;DHT22;32190;49.112;8.598;2023-08-01T23:58:04;23.40;48.10
